Time;durP1;ratioP1;P1;durP2;ratioP2;P2;SDS_P1;SDS_P2;PMS_P1;PMS_P2;Temp;Humidity;BMP_temperature;BMP_pressure;BME280_temperature;BME280_humidity;BME280_pressure;Samples;Min_cycle;Max_cycle;Signal;HPM_P1;HPM_P2
2023/06/25 00:01:42;;;;;;;3.00;2.80;;;22.90;67.00;;;;;;5099447;28;20447;-70
2023/06/25 00:04:10;;;;;;;3.43;3.10;;;22.90;67.20;;;;;;5098977;28;20444;-70
2023/06/25 00:06:38;;;;;;;2.90;2.60;;;22.90;67.50;;;;;;5097967;28;20563;-70
2023/06/25 00:09:05;;;;;;;3.90;2.83;;;22.90;67.90;;;;;;5099044;28;20448;-70
2023/06/25 00:11:31;;;;;;;2.90;2.70;;;22.80;68.10;;;;;;5106526;28;20451;-69
2023/06/25 00:13:58;;;;;;;3.40;3.10;;;22.80;68.50;;;;;;5101652;28;20447;-70
2023/06/25 00:16:29;;;;;;;3.43;3.13;;;22.70;68.50;;;;;;5099871;28;20447;-70
2023/06/25 00:18:55;;;;;;;6.90;3.50;;;22.70;68.70;;;;;;5099419;28;20456;-69
2023/06/25 00:21:22;;;;;;;3.07;2.87;;;22.70;69.00;;;;;;5098639;28;20450;-70
2023/06/25 00:23:51;;;;;;;4.23;3.10;;;22.60;69.40;;;;;;5099182;28;20499;-70
2023/06/25 00:26:17;;;;;;;3.70;3.30;;;22.60;70.30;;;;;;5098485;28;20850;-70
2023/06/25 00:28:44;;;;;;;3.07;2.77;;;22.60;69.70;;;;;;5099087;28;20450;-70
2023/06/25 00:31:12;;;;;;;3.20;2.90;;;22.50;69.70;;;;;;5099237;28;20501;-69
2023/06/25 00:33:39;;;;;;;5.40;3.50;;;22.50;69.90;;;;;;5098686;28;20976;-69
2023/06/25 00:36:07;;;;;;;5.50;3.20;;;22.50;70.20;;;;;;5099003;28;20444;-70
2023/06/25 00:38:35;;;;;;;3.73;3.10;;;22.40;70.60;;;;;;5098610;28;20482;-70
2023/06/25 00:41:04;;;;;;;2.70;2.50;;;22.40;71.00;;;;;;5097945;28;20454;-69
2023/06/25 00:43:31;;;;;;;3.60;2.80;;;22.40;71.00;;;;;;5099005;28;20558;-69
2023/06/25 00:45:58;;;;;;;3.97;2.90;;;22.40;71.20;;;;;;5097495;28;20901;-70
2023/06/25 00:48:25;;;;;;;4.90;3.27;;;22.30;71.40;;;;;;5098301;28;20469;-70
2023/06/25 00:50:52;;;;;;;4.20;3.00;;;22.30;71.70;;;;;;5098289;28;20451;-69
2023/06/25 00:53:19;;;;;;;5.50;3.40;;;22.30;72.00;;;;;;5097917;28;20474;-69
2023/06/25 00:55:50;;;;;;;5.43;3.73;;;22.20;72.10;;;;;;5098140;28;20447;-70
2023/06/25 00:58:22;;;;;;;3.30;2.87;;;22.20;72.20;;;;;;5097908;28;20816;-70
2023/06/25 01:00:51;;;;;;;3.67;3.00;;;22.20;72.30;;;;;;5097437;28;20485;-70
2023/06/25 01:03:26;;;;;;;5.57;3.40;;;22.20;72.60;;;;;;5096795;28;21004;-69
2023/06/25 01:06:00;;;;;;;4.47;3.03;;;22.20;72.80;;;;;;5097036;28;20473;-70
2023/06/25 01:08:29;;;;;;;3.70;3.40;;;22.10;72.70;;;;;;5096442;28;20438;-69
2023/06/25 01:10:56;;;;;;;4.50;3.50;;;22.10;72.90;;;;;;5095751;28;20444;-69
2023/06/25 01:13:25;;;;;;;6.00;4.30;;;22.10;73.20;;;;;;5095930;28;20498;-69
2023/06/25 01:15:52;;;;;;;4.33;3.20;;;22.00;73.30;;;;;;5096898;28;20470;-70
2023/06/25 01:18:19;;;;;;;4.07;2.93;;;22.00;73.30;;;;;;5097109;28;20893;-70
2023/06/25 01:20:46;;;;;;;4.63;3.30;;;22.00;73.50;;;;;;5097566;28;20948;-69
2023/06/25 01:23:15;;;;;;;5.80;3.10;;;22.00;73.50;;;;;;5097834;28;20859;-69
2023/06/25 01:25:47;;;;;;;5.57;3.53;;;21.90;73.90;;;;;;5097245;28;20439;-70
2023/06/25 01:28:14;;;;;;;6.70;3.10;;;21.90;74.10;;;;;;5097602;28;20459;-69
2023/06/25 01:30:40;;;;;;;6.70;3.57;;;21.90;74.60;;;;;;5097212;28;20454;-69
2023/06/25 01:33:07;;;;;;;3.77;3.20;;;21.80;74.60;;;;;;5097503;28;20463;-69
2023/06/25 01:35:34;;;;;;;4.23;2.97;;;21.80;74.80;;;;;;5096064;28;20497;-70
2023/06/25 01:38:00;;;;;;;3.30;2.83;;;21.80;75.00;;;;;;5097658;28;20553;-69
2023/06/25 01:40:29;;;;;;;4.40;3.30;;;21.70;75.20;;;;;;5097824;28;20448;-69
2023/06/25 01:42:55;;;;;;;4.20;3.33;;;21.80;75.60;;;;;;5097437;28;20468;-69
2023/06/25 01:45:22;;;;;;;3.73;3.43;;;21.70;76.10;;;;;;5097531;28;20451;-70
2023/06/25 01:47:49;;;;;;;6.23;3.67;;;21.70;76.50;;;;;;5097726;28;20479;-69
2023/06/25 01:50:15;;;;;;;6.03;3.20;;;21.70;76.50;;;;;;5096437;28;20444;-69
2023/06/25 01:52:42;;;;;;;8.07;3.60;;;21.70;76.50;;;;;;5097358;28;20478;-69
2023/06/25 01:55:09;;;;;;;5.37;3.23;;;21.60;76.40;;;;;;5096680;28;20448;-70
2023/06/25 01:57:37;;;;;;;4.30;3.30;;;21.60;76.30;;;;;;5097242;28;20465;-70
2023/06/25 02:00:07;;;;;;;6.10;3.47;;;21.60;76.30;;;;;;5097203;28;20444;-70
2023/06/25 02:02:34;;;;;;;4.87;3.10;;;21.50;76.60;;;;;;5096011;28;20518;-69
2023/06/25 02:05:01;;;;;;;4.73;3.73;;;21.50;76.50;;;;;;5101313;28;20436;-70
2023/06/25 02:07:28;;;;;;;6.10;3.40;;;21.50;76.50;;;;;;5101284;28;20483;-71
2023/06/25 02:09:54;;;;;;;4.23;3.83;;;21.50;76.90;;;;;;5096017;28;20455;-70
2023/06/25 02:12:21;;;;;;;5.27;3.20;;;21.50;76.80;;;;;;5098489;28;20843;-69
2023/06/25 02:14:49;;;;;;;6.90;3.57;;;21.40;76.70;;;;;;5098059;28;20813;-70
2023/06/25 02:17:16;;;;;;;7.20;3.67;;;21.40;76.90;;;;;;5098822;28;20448;-71
2023/06/25 02:19:43;;;;;;;11.10;3.60;;;21.40;76.90;;;;;;5101221;28;20456;-69
2023/06/25 02:22:10;;;;;;;3.57;3.13;;;21.30;77.00;;;;;;5101670;28;20470;-69
2023/06/25 02:24:37;;;;;;;7.00;4.47;;;21.30;77.50;;;;;;5100300;28;20455;-69
2023/06/25 02:27:04;;;;;;;8.13;3.10;;;21.30;77.90;;;;;;5107516;28;20479;-70
2023/06/25 02:29:31;;;;;;;4.90;3.63;;;21.30;78.10;;;;;;5103681;28;20447;-70
2023/06/25 02:31:59;;;;;;;4.83;3.23;;;21.20;78.10;;;;;;5102828;28;20474;-69
2023/06/25 02:34:26;;;;;;;6.53;3.40;;;21.30;78.10;;;;;;5101675;28;20805;-70
2023/06/25 02:36:52;;;;;;;5.50;3.37;;;21.20;78.50;;;;;;5100979;28;20440;-70
2023/06/25 02:39:19;;;;;;;4.80;3.23;;;21.20;78.60;;;;;;5100590;28;20447;-70
2023/06/25 02:41:46;;;;;;;7.73;3.80;;;21.10;78.60;;;;;;5100637;28;20454;-69
2023/06/25 02:44:13;;;;;;;3.87;3.33;;;21.10;78.70;;;;;;5101309;28;20455;-70
2023/06/25 02:46:40;;;;;;;7.40;3.60;;;21.10;79.00;;;;;;5100666;28;20448;-70
2023/06/25 02:49:08;;;;;;;6.87;3.37;;;21.10;78.80;;;;;;5100822;28;20483;-70
2023/06/25 02:51:34;;;;;;;7.53;3.80;;;21.10;78.90;;;;;;5100704;28;20443;-69
2023/06/25 02:54:01;;;;;;;8.73;3.60;;;21.00;79.00;;;;;;5099862;28;20448;-69
2023/06/25 02:56:28;;;;;;;10.63;3.90;;;21.00;79.10;;;;;;5100488;28;20443;-70
2023/06/25 02:58:55;;;;;;;10.17;4.50;;;21.00;79.40;;;;;;5099214;28;20531;-70
2023/06/25 03:01:22;;;;;;;7.90;3.60;;;21.00;79.70;;;;;;5100788;28;20448;-70
2023/06/25 03:03:49;;;;;;;10.30;3.80;;;21.00;79.90;;;;;;5098021;28;20882;-69
2023/06/25 03:06:17;;;;;;;8.97;3.77;;;21.00;80.20;;;;;;5098148;28;20447;-70
2023/06/25 03:08:44;;;;;;;6.33;4.00;;;20.90;80.20;;;;;;5098340;28;20855;-70
2023/06/25 03:11:10;;;;;;;3.97;3.60;;;20.90;80.40;;;;;;5100228;28;20812;-69
2023/06/25 03:13:38;;;;;;;6.23;3.40;;;20.90;80.70;;;;;;5100049;28;20521;-69
2023/06/25 03:16:05;;;;;;;7.93;4.10;;;20.90;80.90;;;;;;5100540;28;20509;-70
2023/06/25 03:18:32;;;;;;;8.00;4.17;;;20.80;81.00;;;;;;5100248;28;20459;-70
2023/06/25 03:20:59;;;;;;;9.80;3.93;;;20.90;81.70;;;;;;5099170;28;20873;-69
2023/06/25 03:23:27;;;;;;;7.77;3.47;;;20.80;81.80;;;;;;5098590;28;20464;-71
2023/06/25 03:25:54;;;;;;;7.10;4.07;;;20.90;82.20;;;;;;5099213;28;20471;-70
2023/06/25 03:28:20;;;;;;;8.37;4.43;;;20.90;82.20;;;;;;5099648;28;20570;-70
2023/06/25 03:30:47;;;;;;;7.17;4.37;;;20.90;82.10;;;;;;5100119;28;20448;-70
2023/06/25 03:33:15;;;;;;;7.53;4.70;;;20.80;82.20;;;;;;5099233;28;20471;-69
2023/06/25 03:35:41;;;;;;;7.40;4.20;;;20.80;82.10;;;;;;5099152;28;20825;-70
2023/06/25 03:38:10;;;;;;;12.37;3.87;;;20.80;82.00;;;;;;5099797;28;20443;-70
2023/06/25 03:40:41;;;;;;;10.43;3.97;;;20.70;82.00;;;;;;5099471;28;20456;-70
2023/06/25 03:43:08;;;;;;;9.70;4.23;;;20.70;82.10;;;;;;5099208;28;21007;-69
2023/06/25 03:45:34;;;;;;;8.23;3.90;;;20.70;82.00;;;;;;5098870;28;20456;-70
2023/06/25 03:48:01;;;;;;;6.97;4.13;;;20.70;82.10;;;;;;5099080;28;20851;-70
2023/06/25 03:50:28;;;;;;;7.57;3.47;;;20.80;82.40;;;;;;5098219;28;20968;-69
2023/06/25 03:52:55;;;;;;;9.23;3.90;;;20.70;82.30;;;;;;5099120;28;20864;-69
2023/06/25 03:55:21;;;;;;;16.20;3.80;;;20.70;82.30;;;;;;5100244;28;20452;-70
2023/06/25 03:57:50;;;;;;;10.77;4.57;;;20.70;82.40;;;;;;5099294;28;20479;-70
2023/06/25 04:00:18;;;;;;;7.03;3.70;;;20.60;82.80;;;;;;5100820;28;20952;-70
2023/06/25 04:02:44;;;;;;;4.70;3.43;;;20.70;83.40;;;;;;5100283;28;20508;-69
2023/06/25 04:05:11;;;;;;;9.47;3.73;;;20.70;83.50;;;;;;5100523;28;20458;-70
2023/06/25 04:07:38;;;;;;;8.40;4.40;;;20.70;83.60;;;;;;5100221;28;20818;-70
2023/06/25 04:10:06;;;;;;;15.47;4.63;;;20.70;83.80;;;;;;5100541;28;20451;-68
2023/06/25 04:12:33;;;;;;;6.27;4.00;;;20.70;84.00;;;;;;5100003;28;20481;-70
2023/06/25 04:15:01;;;;;;;5.17;3.97;;;20.70;84.10;;;;;;5099085;28;20992;-70
2023/06/25 04:17:28;;;;;;;13.83;4.30;;;20.80;84.40;;;;;;5099049;28;20439;-71
2023/06/25 04:19:55;;;;;;;9.63;4.10;;;20.70;84.40;;;;;;5098859;28;20443;-70
2023/06/25 04:22:22;;;;;;;8.20;4.70;;;20.70;84.70;;;;;;5098534;28;20463;-68
2023/06/25 04:24:49;;;;;;;7.60;3.80;;;20.70;85.20;;;;;;5099567;28;20846;-69
2023/06/25 04:27:16;;;;;;;8.93;4.23;;;20.80;85.50;;;;;;5098781;28;20451;-69
2023/06/25 04:29:43;;;;;;;5.20;4.10;;;20.70;85.60;;;;;;5099715;28;20456;-69
2023/06/25 04:32:11;;;;;;;10.07;4.87;;;20.80;86.40;;;;;;5098066;28;20463;-69
2023/06/25 04:34:38;;;;;;;9.50;4.60;;;20.80;86.60;;;;;;5098596;28;20444;-70
2023/06/25 04:37:06;;;;;;;7.07;5.17;;;20.90;87.10;;;;;;5098986;28;20452;-69
2023/06/25 04:39:33;;;;;;;6.07;4.30;;;20.90;87.10;;;;;;5098554;28;20600;-69
2023/06/25 04:42:00;;;;;;;6.83;4.60;;;21.00;87.10;;;;;;5099655;28;20464;-69
2023/06/25 04:44:27;;;;;;;6.33;5.00;;;21.00;87.20;;;;;;5107536;28;20447;-69
2023/06/25 04:46:54;;;;;;;6.80;4.80;;;21.10;87.30;;;;;;5100310;28;20451;-69
2023/06/25 04:49:23;;;;;;;7.33;5.13;;;21.10;87.50;;;;;;5099429;28;20492;-69
2023/06/25 04:51:50;;;;;;;6.00;4.67;;;21.10;87.60;;;;;;5098785;28;20451;-68
2023/06/25 04:54:16;;;;;;;6.47;5.00;;;21.20;87.00;;;;;;5099101;28;20968;-70
2023/06/25 04:56:43;;;;;;;6.90;5.80;;;21.20;86.90;;;;;;5097866;28;20458;-69
2023/06/25 04:59:10;;;;;;;6.30;5.47;;;21.30;86.90;;;;;;5103889;28;20548;-69
2023/06/25 05:01:37;;;;;;;9.13;4.90;;;21.30;86.80;;;;;;5097672;28;20447;-69
2023/06/25 05:04:04;;;;;;;7.60;5.17;;;21.40;86.00;;;;;;5096731;28;20955;-70
2023/06/25 05:06:32;;;;;;;8.47;6.17;;;21.50;85.60;;;;;;5097493;28;20455;-69
2023/06/25 05:08:59;;;;;;;7.03;5.37;;;21.50;85.30;;;;;;5098093;28;20476;-69
2023/06/25 05:11:26;;;;;;;9.73;5.07;;;21.60;85.90;;;;;;5098046;28;20460;-69
2023/06/25 05:13:52;;;;;;;7.53;4.70;;;21.60;84.40;;;;;;5098045;28;20976;-69
2023/06/25 05:16:19;;;;;;;6.87;5.43;;;21.70;84.50;;;;;;5097770;28;20447;-69
2023/06/25 05:18:46;;;;;;;8.17;5.57;;;21.70;84.10;;;;;;5098351;28;20836;-69
2023/06/25 05:21:12;;;;;;;6.93;6.00;;;21.80;84.30;;;;;;5098059;28;20446;-70
2023/06/25 05:23:43;;;;;;;7.53;5.07;;;21.80;84.30;;;;;;5097819;28;20472;-69
2023/06/25 05:26:10;;;;;;;6.20;4.40;;;21.90;84.10;;;;;;5098447;28;20474;-70
2023/06/25 05:28:38;;;;;;;5.83;4.50;;;22.00;84.00;;;;;;5097952;28;20491;-70
2023/06/25 05:31:04;;;;;;;5.87;4.90;;;22.00;83.10;;;;;;5098022;28;20450;-70
2023/06/25 05:33:31;;;;;;;7.03;4.47;;;22.10;82.60;;;;;;5097151;28;20475;-69
2023/06/25 05:35:58;;;;;;;7.30;5.30;;;22.20;82.90;;;;;;5097601;28;20474;-70
2023/06/25 05:38:24;;;;;;;6.60;4.80;;;22.20;83.10;;;;;;5098008;28;20451;-70
2023/06/25 05:40:53;;;;;;;6.30;5.47;;;22.30;83.20;;;;;;5097640;28;20448;-69
2023/06/25 05:43:19;;;;;;;8.03;5.00;;;22.30;83.20;;;;;;5097940;28;20468;-69
2023/06/25 05:45:46;;;;;;;6.40;4.43;;;22.40;83.40;;;;;;5096791;28;20856;-70
2023/06/25 05:48:13;;;;;;;6.60;4.80;;;22.50;83.00;;;;;;5097343;28;20486;-70
2023/06/25 05:50:40;;;;;;;6.77;4.87;;;22.60;82.10;;;;;;5097448;28;20450;-69
2023/06/25 05:53:06;;;;;;;8.60;4.43;;;22.70;81.80;;;;;;5097103;28;20468;-69
2023/06/25 05:55:33;;;;;;;5.13;4.23;;;22.70;81.20;;;;;;5097388;28;20447;-70
2023/06/25 05:58:02;;;;;;;6.00;4.23;;;22.80;79.80;;;;;;5097343;28;20451;-70
2023/06/25 06:00:29;;;;;;;4.60;3.70;;;22.90;78.60;;;;;;5097634;28;20452;-70
2023/06/25 06:02:56;;;;;;;6.00;3.97;;;23.00;78.20;;;;;;5097583;28;20478;-70
2023/06/25 06:05:22;;;;;;;6.40;3.90;;;23.10;77.50;;;;;;5097390;28;20458;-70
2023/06/25 06:07:49;;;;;;;5.43;3.93;;;23.20;76.80;;;;;;5097231;28;20487;-70
2023/06/25 06:10:17;;;;;;;7.90;4.43;;;23.30;76.10;;;;;;5097308;28;20536;-69
2023/06/25 06:12:44;;;;;;;4.23;3.80;;;23.40;74.60;;;;;;5097048;28;20471;-69
2023/06/25 06:15:12;;;;;;;5.83;4.40;;;23.50;74.20;;;;;;5097154;28;20459;-70
2023/06/25 06:17:39;;;;;;;5.17;4.10;;;23.60;73.20;;;;;;5097386;28;20443;-70
2023/06/25 06:20:07;;;;;;;8.73;4.53;;;23.70;73.00;;;;;;5096989;28;20905;-70
2023/06/25 06:22:34;;;;;;;5.97;4.10;;;23.80;72.60;;;;;;5096765;28;20480;-69
2023/06/25 06:25:00;;;;;;;5.20;4.30;;;23.90;72.80;;;;;;5079214;28;20483;-70
2023/06/25 06:27:27;;;;;;;7.93;4.57;;;24.10;72.20;;;;;;5096237;28;20455;-70
2023/06/25 06:29:54;;;;;;;4.87;4.37;;;24.20;72.00;;;;;;5096344;28;20991;-70
2023/06/25 06:32:23;;;;;;;6.13;4.20;;;24.30;71.50;;;;;;5096755;28;20475;-69
2023/06/25 06:34:49;;;;;;;6.63;4.90;;;24.50;70.80;;;;;;5097203;28;20824;-70
2023/06/25 06:37:16;;;;;;;7.20;4.23;;;24.60;70.00;;;;;;5096586;28;20455;-70
2023/06/25 06:39:43;;;;;;;5.43;4.20;;;24.80;70.30;;;;;;5096170;28;20440;-70
2023/06/25 06:42:09;;;;;;;6.37;4.60;;;24.90;69.40;;;;;;5096734;28;20476;-70
2023/06/25 06:44:36;;;;;;;6.77;4.57;;;25.10;68.40;;;;;;5095983;28;20452;-71
2023/06/25 06:47:03;;;;;;;4.60;4.10;;;25.20;67.30;;;;;;5096404;28;20455;-70
2023/06/25 06:49:31;;;;;;;5.53;4.30;;;25.40;66.50;;;;;;5096191;28;20479;-71
2023/06/25 06:51:58;;;;;;;5.47;3.80;;;25.50;66.70;;;;;;5096817;28;20841;-70
2023/06/25 06:54:25;;;;;;;9.03;4.43;;;25.70;66.10;;;;;;5096488;28;20444;-70
2023/06/25 06:56:52;;;;;;;5.00;3.97;;;25.90;65.60;;;;;;5097488;28;20447;-71
2023/06/25 06:59:18;;;;;;;4.80;4.40;;;26.10;63.50;;;;;;5109957;28;20941;-70
2023/06/25 07:01:45;;;;;;;6.87;4.73;;;26.20;62.40;;;;;;5100342;28;20444;-70
2023/06/25 07:04:12;;;;;;;6.53;4.07;;;26.40;60.60;;;;;;5101081;28;20450;-70
2023/06/25 07:06:40;;;;;;;7.60;5.03;;;26.50;59.80;;;;;;5101092;28;20447;-71
2023/06/25 07:09:07;;;;;;;6.43;5.13;;;26.70;60.20;;;;;;5100791;28;20491;-71
2023/06/25 07:11:34;;;;;;;6.20;4.23;;;26.90;61.30;;;;;;5100969;28;20451;-70
2023/06/25 07:14:01;;;;;;;5.90;4.13;;;27.10;61.50;;;;;;5102034;28;20459;-71
2023/06/25 07:16:27;;;;;;;7.67;4.80;;;27.30;61.00;;;;;;5101563;28;20479;-71
2023/06/25 07:18:54;;;;;;;7.20;6.23;;;27.50;59.70;;;;;;5102063;28;20466;-70
2023/06/25 07:21:21;;;;;;;5.67;4.97;;;27.60;56.80;;;;;;5101643;28;20451;-70
2023/06/25 07:23:49;;;;;;;4.67;4.27;;;27.70;56.40;;;;;;5102281;28;20468;-70
2023/06/25 07:26:16;;;;;;;6.20;4.63;;;27.80;57.10;;;;;;5102019;28;20539;-71
2023/06/25 07:28:43;;;;;;;5.77;4.00;;;28.10;57.90;;;;;;5103256;28;20479;-71
2023/06/25 07:31:09;;;;;;;5.10;4.40;;;28.20;56.70;;;;;;5102415;28;20459;-71
2023/06/25 07:33:36;;;;;;;5.93;4.63;;;28.50;55.90;;;;;;5102311;28;20463;-70
2023/06/25 07:36:03;;;;;;;5.50;5.00;;;28.70;54.90;;;;;;5101599;28;20451;-71
2023/06/25 07:38:30;;;;;;;4.53;4.13;;;28.90;54.40;;;;;;5102152;28;20444;-71
2023/06/25 07:40:58;;;;;;;5.37;4.87;;;29.10;53.90;;;;;;5100305;28;20452;-70
2023/06/25 07:43:25;;;;;;;6.07;5.47;;;29.30;53.30;;;;;;5101759;28;20468;-71
2023/06/25 07:45:52;;;;;;;7.97;5.93;;;29.50;52.70;;;;;;5101005;28;20444;-71
2023/06/25 07:48:19;;;;;;;5.27;4.63;;;29.80;51.00;;;;;;5100491;28;20473;-71
2023/06/25 07:50:45;;;;;;;5.63;5.13;;;29.90;49.80;;;;;;5099019;28;20458;-70
2023/06/25 07:53:12;;;;;;;7.33;5.10;;;30.10;50.90;;;;;;5111907;28;20463;-71
2023/06/25 07:55:41;;;;;;;5.03;4.53;;;30.30;50.50;;;;;;5105295;28;20811;-71
2023/06/25 07:58:09;;;;;;;5.43;4.93;;;30.50;49.90;;;;;;5101253;28;20513;-71
2023/06/25 08:00:36;;;;;;;5.87;5.37;;;30.70;49.60;;;;;;5100517;28;20450;-71
2023/06/25 08:03:03;;;;;;;5.73;5.23;;;31.00;50.30;;;;;;5100041;28;20467;-71
2023/06/25 08:05:30;;;;;;;5.33;4.93;;;31.20;49.50;;;;;;5100287;28;20451;-72
2023/06/25 08:07:57;;;;;;;6.50;4.87;;;31.40;48.40;;;;;;5099593;28;20960;-71
2023/06/25 08:10:24;;;;;;;6.23;5.63;;;31.50;46.00;;;;;;5098132;28;20479;-71
2023/06/25 08:12:52;;;;;;;5.10;4.70;;;31.70;42.80;;;;;;5098857;28;20459;-71
2023/06/25 08:15:20;;;;;;;5.80;5.30;;;31.80;41.50;;;;;;5097017;28;20451;-71
2023/06/25 08:17:47;;;;;;;5.03;4.70;;;31.90;43.60;;;;;;5097360;28;20463;-72
2023/06/25 08:20:14;;;;;;;5.63;5.13;;;32.00;41.60;;;;;;5098316;28;20498;-71
2023/06/25 08:22:41;;;;;;;6.30;5.70;;;32.10;40.70;;;;;;5097703;28;20474;-71
2023/06/25 08:25:20;;;;;;;5.57;5.10;;;32.30;41.70;;;;;;5097843;28;20443;-71
2023/06/25 08:27:47;;;;;;;5.90;5.50;;;32.50;42.50;;;;;;5097606;28;20791;-72
2023/06/25 08:30:14;;;;;;;5.50;5.10;;;32.60;40.30;;;;;;5096404;28;20487;-71
2023/06/25 08:32:42;;;;;;;5.77;5.30;;;32.80;39.80;;;;;;5097766;28;20467;-71
2023/06/25 08:35:09;;;;;;;6.13;5.37;;;32.90;38.40;;;;;;5097216;28;20455;-72
2023/06/25 08:37:35;;;;;;;5.63;5.13;;;32.90;38.30;;;;;;5098206;28;20455;-72
2023/06/25 08:40:02;;;;;;;5.60;5.20;;;33.10;38.90;;;;;;5097658;28;20439;-71
2023/06/25 08:42:30;;;;;;;6.80;5.70;;;33.30;39.20;;;;;;5097391;28;20543;-71
2023/06/25 08:44:58;;;;;;;6.47;5.90;;;33.50;38.90;;;;;;5097449;28;20447;-72
2023/06/25 08:47:27;;;;;;;6.33;5.83;;;33.60;37.10;;;;;;5097248;28;20454;-71
2023/06/25 08:49:56;;;;;;;6.90;6.30;;;33.80;37.40;;;;;;5096431;28;20536;-72
2023/06/25 08:52:25;;;;;;;6.50;5.90;;;33.90;39.00;;;;;;5096797;28;20554;-71
2023/06/25 08:54:52;;;;;;;6.33;5.73;;;34.10;37.20;;;;;;5096473;28;20457;-72
2023/06/25 08:57:19;;;;;;;6.10;5.60;;;34.20;37.20;;;;;;5095997;28;20541;-72
2023/06/25 08:59:46;;;;;;;6.03;5.63;;;34.40;35.50;;;;;;5096066;28;20443;-72
2023/06/25 09:02:13;;;;;;;7.00;6.30;;;34.60;36.20;;;;;;5095241;28;20475;-71
2023/06/25 09:04:43;;;;;;;7.20;6.50;;;34.70;36.80;;;;;;5095972;28;20443;-72
2023/06/25 09:07:15;;;;;;;6.70;6.10;;;34.90;35.80;;;;;;5096051;28;20447;-72
2023/06/25 09:09:42;;;;;;;6.60;6.00;;;35.10;35.30;;;;;;5095082;28;20999;-72
2023/06/25 09:12:10;;;;;;;6.97;6.40;;;35.20;34.70;;;;;;5095479;28;20473;-73
2023/06/25 09:14:37;;;;;;;6.10;5.70;;;35.40;35.30;;;;;;5102382;28;20439;-72
2023/06/25 09:17:05;;;;;;;5.87;5.33;;;35.50;33.40;;;;;;5104162;28;20447;-72
2023/06/25 09:19:32;;;;;;;6.63;5.50;;;35.60;33.30;;;;;;5099305;28;20240;-72
2023/06/25 09:21:59;;;;;;;6.97;6.30;;;35.70;33.70;;;;;;5097194;28;20224;-72
2023/06/25 09:24:27;;;;;;;6.00;5.60;;;35.80;34.10;;;;;;5096494;28;20205;-72
2023/06/25 09:26:56;;;;;;;6.80;6.20;;;35.90;33.10;;;;;;5096450;28;20221;-72
2023/06/25 09:29:23;;;;;;;7.03;5.83;;;36.10;33.70;;;;;;5096099;28;20709;-72
2023/06/25 09:31:50;;;;;;;7.10;5.80;;;36.30;33.70;;;;;;5095801;28;20685;-71
2023/06/25 09:34:19;;;;;;;6.20;5.70;;;36.50;34.00;;;;;;5095294;28;20204;-72
2023/06/25 09:36:47;;;;;;;6.73;6.23;;;36.70;33.70;;;;;;5095921;28;20204;-72
2023/06/25 09:39:14;;;;;;;6.10;5.60;;;37.00;32.60;;;;;;5094578;28;20284;-71
2023/06/25 09:41:42;;;;;;;6.43;5.82;;;37.20;32.30;;;;;;5095073;28;20205;-71
2023/06/25 09:44:09;;;;;;;6.07;5.60;;;37.40;31.30;;;;;;5095648;28;20201;-72
2023/06/25 09:46:38;;;;;;;6.00;5.60;;;37.50;30.90;;;;;;5094799;28;20207;-72
2023/06/25 09:49:06;;;;;;;6.38;5.88;;;37.80;31.80;;;;;;5094519;28;20713;-71
2023/06/25 09:51:38;;;;;;;6.60;6.10;;;38.00;31.70;;;;;;5094908;28;20200;-72
2023/06/25 09:54:08;;;;;;;6.05;5.55;;;38.10;28.80;;;;;;5093628;28;20228;-72
2023/06/25 09:56:37;;;;;;;5.97;5.55;;;38.30;29.30;;;;;;5095144;28;20200;-72
2023/06/25 09:59:05;;;;;;;5.82;5.43;;;38.60;29.70;;;;;;5093772;28;20670;-73
2023/06/25 10:01:32;;;;;;;4.97;4.53;;;38.90;27.30;;;;;;5094734;28;20197;-72
2023/06/25 10:03:59;;;;;;;6.03;5.40;;;39.10;27.30;;;;;;5094939;28;20207;-71
2023/06/25 10:06:26;;;;;;;4.75;4.45;;;39.40;27.70;;;;;;5094290;28;20254;-73
2023/06/25 10:08:55;;;;;;;5.22;4.72;;;39.60;26.70;;;;;;5093547;28;20201;-72
2023/06/25 10:11:22;;;;;;;6.15;4.82;;;39.90;26.70;;;;;;5093538;28;20669;-71
2023/06/25 10:13:51;;;;;;;5.25;4.85;;;40.10;27.30;;;;;;5094806;28;20247;-71
2023/06/25 10:16:20;;;;;;;5.90;5.10;;;40.50;26.20;;;;;;5094005;28;20258;-72
2023/06/25 10:18:48;;;;;;;5.07;4.68;;;40.70;25.30;;;;;;5094671;28;20209;-72
2023/06/25 10:21:23;;;;;;;5.10;4.65;;;41.00;24.40;;;;;;5094735;28;20205;-72
2023/06/25 10:24:01;;;;;;;5.13;4.68;;;41.30;24.80;;;;;;5094270;28;20224;-71
2023/06/25 10:26:29;;;;;;;4.40;4.10;;;41.70;24.80;;;;;;5094270;28;20210;-72
2023/06/25 10:28:56;;;;;;;5.13;4.82;;;42.10;23.70;;;;;;5093720;28;20208;-73
2023/06/25 10:31:25;;;;;;;5.47;5.07;;;42.40;23.30;;;;;;5093036;28;20630;-72
2023/06/25 10:34:02;;;;;;;6.38;4.80;;;42.70;21.40;;;;;;5097513;28;20278;-72
2023/06/25 10:36:28;;;;;;;6.45;5.13;;;43.00;21.30;;;;;;5098379;28;20196;-73
2023/06/25 10:38:56;;;;;;;4.32;4.03;;;43.30;20.60;;;;;;5098345;28;20212;-74
2023/06/25 10:41:27;;;;;;;4.75;4.45;;;43.60;21.00;;;;;;5098568;28;20197;-73
2023/06/25 10:43:55;;;;;;;5.05;4.65;;;44.00;21.20;;;;;;5099781;28;20254;-72
2023/06/25 10:46:30;;;;;;;5.10;4.60;;;44.30;22.20;;;;;;5111238;28;20197;-71
2023/06/25 10:48:58;;;;;;;4.45;4.25;;;44.50;20.60;;;;;;5101349;28;20180;-72
2023/06/25 10:51:26;;;;;;;4.63;4.32;;;44.60;20.10;;;;;;5099755;28;20214;-73
2023/06/25 10:53:54;;;;;;;4.70;4.40;;;44.80;19.70;;;;;;5096997;28;20225;-72
2023/06/25 10:56:22;;;;;;;4.25;3.95;;;45.00;18.70;;;;;;5097390;28;20669;-72
2023/06/25 10:58:55;;;;;;;5.22;4.20;;;45.20;19.30;;;;;;5097712;28;20208;-73
2023/06/25 11:01:22;;;;;;;5.80;5.30;;;45.40;18.70;;;;;;5097960;28;20203;-72
2023/06/25 11:03:50;;;;;;;4.88;4.57;;;45.60;19.10;;;;;;5098377;28;20248;-72
2023/06/25 11:06:18;;;;;;;4.13;3.83;;;45.90;19.30;;;;;;5097901;28;20638;-73
2023/06/25 11:08:45;;;;;;;4.30;4.00;;;46.20;19.40;;;;;;5098230;28;20205;-71
2023/06/25 11:11:12;;;;;;;4.55;4.25;;;46.60;18.60;;;;;;5098052;28;20213;-72
2023/06/25 11:13:39;;;;;;;4.45;4.15;;;46.90;17.30;;;;;;5097763;28;20221;-72
2023/06/25 11:16:05;;;;;;;5.03;4.55;;;47.10;17.40;;;;;;5097503;28;20209;-73
2023/06/25 11:18:32;;;;;;;4.35;3.95;;;47.30;15.90;;;;;;5096345;28;20689;-72
2023/06/25 11:21:05;;;;;;;4.00;3.80;;;47.40;16.30;;;;;;5097163;28;20200;-73
2023/06/25 11:23:35;;;;;;;4.60;4.20;;;47.80;17.40;;;;;;5096927;28;20308;-72
2023/06/25 11:26:03;;;;;;;5.15;4.75;;;48.20;16.00;;;;;;5095752;28;20204;-73
2023/06/25 11:28:30;;;;;;;4.68;4.38;;;48.40;15.00;;;;;;5106511;28;20197;-73
2023/06/25 11:30:59;;;;;;;4.28;3.97;;;48.50;14.10;;;;;;5103842;28;20225;-72
2023/06/25 11:33:26;;;;;;;5.18;3.90;;;48.50;14.80;;;;;;5102067;28;20221;-73
2023/06/25 11:35:54;;;;;;;4.88;4.47;;;48.90;16.50;;;;;;5098527;28;20201;-73
2023/06/25 11:38:29;;;;;;;4.88;4.57;;;49.20;14.50;;;;;;5097816;28;20201;-73
2023/06/25 11:40:58;;;;;;;5.68;3.80;;;49.50;14.50;;;;;;5097403;28;20669;-72
2023/06/25 11:43:25;;;;;;;4.63;4.32;;;49.60;15.20;;;;;;5096619;28;20260;-73
2023/06/25 11:45:52;;;;;;;4.18;3.88;;;50.00;14.70;;;;;;5097190;28;20205;-73
2023/06/25 11:48:20;;;;;;;4.20;3.90;;;50.10;14.70;;;;;;5096534;28;20201;-73
2023/06/25 11:50:49;;;;;;;4.05;3.83;;;50.30;15.10;;;;;;5096721;28;20259;-72
2023/06/25 11:53:16;;;;;;;3.88;3.65;;;50.70;14.80;;;;;;5096606;28;20225;-72
2023/06/25 11:55:44;;;;;;;3.95;3.60;;;51.00;13.50;;;;;;5096291;28;20212;-73
2023/06/25 11:58:11;;;;;;;4.00;3.70;;;51.10;12.90;;;;;;5096361;28;20204;-73
2023/06/25 12:00:38;;;;;;;3.72;3.53;;;51.20;13.80;;;;;;5096298;28;20562;-72
2023/06/25 12:03:05;;;;;;;4.30;4.00;;;51.40;13.70;;;;;;5096287;28;20221;-72
2023/06/25 12:05:32;;;;;;;3.85;3.63;;;51.70;14.30;;;;;;5096288;28;20201;-73
2023/06/25 12:07:58;;;;;;;4.15;3.85;;;52.00;14.40;;;;;;5096221;28;20205;-73
2023/06/25 12:10:26;;;;;;;4.07;3.55;;;52.30;14.30;;;;;;5095250;28;20232;-73
2023/06/25 12:12:54;;;;;;;3.92;3.63;;;52.70;14.40;;;;;;5095457;28;20602;-73
2023/06/25 12:15:21;;;;;;;3.83;3.63;;;52.90;14.10;;;;;;5095779;28;20208;-73
2023/06/25 12:17:48;;;;;;;4.40;4.07;;;53.30;12.90;;;;;;5095546;28;20220;-73
2023/06/25 12:20:15;;;;;;;4.00;3.70;;;53.20;11.20;;;;;;5095878;28;20634;-73
2023/06/25 12:22:42;;;;;;;3.92;3.72;;;52.90;12.60;;;;;;5095427;28;20229;-72
2023/06/25 12:25:09;;;;;;;3.78;3.53;;;52.60;11.70;;;;;;5095798;28;20292;-73
2023/06/25 12:27:39;;;;;;;4.30;3.90;;;52.50;12.00;;;;;;5095529;28;20576;-73
2023/06/25 12:30:08;;;;;;;3.80;3.50;;;52.70;13.10;;;;;;5094918;28;20224;-73
2023/06/25 12:32:35;;;;;;;4.05;3.80;;;52.90;13.20;;;;;;5095666;28;20266;-72
2023/06/25 12:35:02;;;;;;;4.45;4.05;;;53.00;12.80;;;;;;5095473;28;20212;-73
2023/06/25 12:37:29;;;;;;;4.30;3.90;;;53.00;12.70;;;;;;5095286;28;20228;-74
2023/06/25 12:39:55;;;;;;;6.45;4.07;;;53.00;12.00;;;;;;5095211;28;20751;-74
2023/06/25 12:42:22;;;;;;;3.78;3.58;;;53.10;11.50;;;;;;5095398;28;20228;-73
2023/06/25 12:44:49;;;;;;;3.70;3.50;;;53.40;12.20;;;;;;5095620;28;20201;-73
2023/06/25 12:47:17;;;;;;;3.25;3.05;;;53.70;12.60;;;;;;5094964;28;20705;-73